Time;durP1;ratioP1;P1;durP2;ratioP2;P2;SDS_P1;SDS_P2;PMS_P1;PMS_P2;Temp;Humidity;BMP_temperature;BMP_pressure;BME280_temperature;BME280_humidity;BME280_pressure;Samples;Min_cycle;Max_cycle;Signal;HPM_P1;HPM_P2
2023/01/20 00:01:29;;;;;;;;;;;;;;;19.86;39.13;100064.76;106042;1286;61107;-83
2023/01/20 00:03:54;;;;;;;;;;;;;;;19.86;39.29;100063.89;106032;1288;60034;-83
2023/01/20 00:06:20;;;;;;;;;;;;;;;19.87;39.22;100070.81;106030;1285;61286;-83
2023/01/20 00:08:52;;;;;;;;;;;;;;;19.86;39.13;100076.23;106199;1283;61209;-83
2023/01/20 00:11:18;;;;;;;;;;;;;;;19.86;39.25;100079.98;106061;1283;61254;-83
2023/01/20 00:13:43;;;;;;;;;;;;;;;19.86;39.27;100079.40;106132;1288;61346;-83
2023/01/20 00:16:09;;;;;;;;;;;;;;;19.86;39.13;100078.68;106048;1287;61344;-83
2023/01/20 00:18:35;;;;;;;;;;;;;;;19.86;39.08;100081.41;106023;1283;61282;-84
2023/01/20 00:21:02;;;;;;;;;;;;;;;19.86;39.07;100073.33;106064;1283;61763;-83
2023/01/20 00:23:28;;;;;;;;;;;;;;;19.86;38.99;100069.45;106176;1283;61305;-83
2023/01/20 00:25:53;;;;;;;;;;;;;;;19.85;39.00;100076.45;106031;1288;61319;-83
2023/01/20 00:28:19;;;;;;;;;;;;;;;19.85;39.01;100068.41;106154;1287;61303;-83
2023/01/20 00:30:44;;;;;;;;;;;;;;;19.85;39.16;100055.06;106020;1283;61234;-83
2023/01/20 00:33:10;;;;;;;;;;;;;;;19.85;39.08;100054.51;106196;1286;61377;-83
2023/01/20 00:35:36;;;;;;;;;;;;;;;19.85;39.08;100058.11;106013;1289;61266;-83
2023/01/20 00:38:02;;;;;;;;;;;;;;;19.84;39.19;100056.69;105952;1288;61152;-83
2023/01/20 00:40:28;;;;;;;;;;;;;;;19.84;39.10;100059.39;106086;1288;61278;-83
2023/01/20 00:42:53;;;;;;;;;;;;;;;19.84;39.04;100056.02;106042;1287;61289;-83
2023/01/20 00:45:18;;;;;;;;;;;;;;;19.84;39.01;100057.29;105944;1288;61274;-83
2023/01/20 00:47:44;;;;;;;;;;;;;;;19.83;39.05;100059.44;106058;1283;61442;-83
2023/01/20 00:50:10;;;;;;;;;;;;;;;19.84;39.02;100061.95;106014;1288;61238;-83
2023/01/20 00:52:35;;;;;;;;;;;;;;;19.83;38.99;100058.02;105923;1283;61443;-83
2023/01/20 00:55:01;;;;;;;;;;;;;;;19.83;39.17;100052.13;106129;1283;61292;-83
2023/01/20 00:57:27;;;;;;;;;;;;;;;19.83;39.07;100042.18;106209;1282;61237;-83
2023/01/20 00:59:53;;;;;;;;;;;;;;;19.83;39.05;100040.21;106188;1286;61353;-83
2023/01/20 01:02:18;;;;;;;;;;;;;;;19.83;39.06;100039.34;105868;1297;61389;-83
2023/01/20 01:04:44;;;;;;;;;;;;;;;19.83;38.98;100048.63;106182;1283;61290;-83
2023/01/20 01:07:09;;;;;;;;;;;;;;;19.82;38.91;100040.08;106001;1289;61304;-83
2023/01/20 01:09:36;;;;;;;;;;;;;;;19.82;39.16;100039.02;106076;1287;61312;-83
2023/01/20 01:12:01;;;;;;;;;;;;;;;19.82;39.07;100037.77;106013;1289;72882;-83
2023/01/20 01:14:29;;;;;;;;;;;;;;;19.82;39.13;100030.98;105977;1288;61301;-84
2023/01/20 01:16:54;;;;;;;;;;;;;;;19.82;39.01;100029.02;106092;1283;61311;-83
2023/01/20 01:19:20;;;;;;;;;;;;;;;19.81;38.88;100033.02;106073;1288;61272;-83
2023/01/20 01:21:46;;;;;;;;;;;;;;;19.81;38.90;100035.34;106041;1282;61288;-83
2023/01/20 01:24:12;;;;;;;;;;;;;;;19.81;39.08;100033.58;106080;1282;61346;-83
2023/01/20 01:26:37;;;;;;;;;;;;;;;19.81;39.00;100038.04;104961;1288;1444374;-83
2023/01/20 01:29:03;;;;;;;;;;;;;;;19.81;38.98;100028.95;106246;1282;61340;-82
2023/01/20 01:31:29;;;;;;;;;;;;;;;19.81;38.85;100032.17;105981;1283;61209;-82
2023/01/20 01:33:54;;;;;;;;;;;;;;;19.81;38.93;100025.74;106080;1282;61332;-82
2023/01/20 01:36:20;;;;;;;;;;;;;;;19.81;38.86;100032.35;105969;1287;61625;-82
2023/01/20 01:38:46;;;;;;;;;;;;;;;19.80;38.98;100041.66;105999;1288;61328;-82
2023/01/20 01:41:12;;;;;;;;;;;;;;;19.80;38.82;100045.41;105948;1283;61292;-82
2023/01/20 01:43:38;;;;;;;;;;;;;;;19.80;38.99;100038.44;106003;1282;61144;-82
2023/01/20 01:46:03;;;;;;;;;;;;;;;19.80;38.96;100028.45;106019;1283;71931;-82
2023/01/20 01:48:33;;;;;;;;;;;;;;;19.80;38.85;100025.27;105915;1288;61270;-82
2023/01/20 01:51:05;;;;;;;;;;;;;;;19.79;38.80;100026.39;106201;1282;60846;-83
2023/01/20 01:53:32;;;;;;;;;;;;;;;19.79;38.87;100033.48;106208;1282;61411;-83
2023/01/20 01:55:59;;;;;;;;;;;;;;;19.79;38.78;100020.33;106061;1283;73357;-83
2023/01/20 01:58:34;;;;;;;;;;;;;;;19.79;38.87;100018.91;106165;1282;61039;-83
2023/01/20 02:01:00;;;;;;;;;;;;;;;19.78;38.90;100021.41;106006;1285;61261;-83
2023/01/20 02:03:27;;;;;;;;;;;;;;;19.79;38.77;100021.95;106040;1282;61244;-83
2023/01/20 02:05:55;;;;;;;;;;;;;;;19.78;38.90;100015.89;106008;1283;61980;-83
2023/01/20 02:08:20;;;;;;;;;;;;;;;19.78;38.86;100004.48;106015;1283;75494;-82
2023/01/20 02:10:46;;;;;;;;;;;;;;;19.79;38.92;100010.38;106187;1283;61234;-82
2023/01/20 02:13:11;;;;;;;;;;;;;;;19.78;38.99;100005.94;106064;1282;61302;-82
2023/01/20 02:15:57;;;;;;;;;;;;;;;19.78;38.88;100000.73;106034;1283;59949;-83
2023/01/20 02:18:23;;;;;;;;;;;;;;;19.77;38.76;100006.85;106258;1282;75244;-83
2023/01/20 02:21:03;;;;;;;;;;;;;;;19.77;38.77;100012.21;106141;1281;61279;-83
2023/01/20 02:23:34;;;;;;;;;;;;;;;19.78;38.75;100015.40;106207;1281;61090;-83
2023/01/20 02:26:29;;;;;;;;;;;;;;;19.77;38.88;100010.95;106209;1282;73619;-83
2023/01/20 02:28:54;;;;;;;;;;;;;;;19.77;38.77;100007.61;105532;1289;74314;-83
2023/01/20 02:31:20;;;;;;;;;;;;;;;19.78;38.75;100005.77;105553;1289;61390;-83
2023/01/20 02:34:07;;;;;;;;;;;;;;;19.77;38.69;100003.52;105546;1289;61246;-83
2023/01/20 02:36:33;;;;;;;;;;;;;;;19.76;38.68;99996.19;105467;1289;73766;-83
2023/01/20 02:38:59;;;;;;;;;;;;;;;19.76;38.63;99995.14;105514;1289;75466;-83
2023/01/20 02:41:28;;;;;;;;;;;;;;;19.76;38.90;99991.05;105431;1289;61260;-83
2023/01/20 02:43:58;;;;;;;;;;;;;;;19.76;38.73;99994.13;105553;1289;61295;-83
2023/01/20 02:46:23;;;;;;;;;;;;;;;19.75;38.75;99990.04;105381;1290;73611;-83
2023/01/20 02:48:51;;;;;;;;;;;;;;;19.76;38.75;99984.46;105519;1290;61466;-83
2023/01/20 02:51:17;;;;;;;;;;;;;;;19.76;38.69;99976.45;105543;1289;61268;-83
2023/01/20 02:53:44;;;;;;;;;;;;;;;19.75;38.79;99971.14;105535;1289;61190;-83
2023/01/20 02:56:10;;;;;;;;;;;;;;;19.75;38.66;99966.46;105405;1290;72462;-83
2023/01/20 02:58:41;;;;;;;;;;;;;;;19.75;38.75;99971.31;105384;1289;61299;-82
2023/01/20 03:01:11;;;;;;;;;;;;;;;19.75;38.73;99963.47;105420;1289;61309;-82
2023/01/20 03:03:37;;;;;;;;;;;;;;;19.74;38.83;99954.77;105413;1289;61196;-83
2023/01/20 03:06:04;;;;;;;;;;;;;;;19.75;38.75;99953.86;105826;1282;60030;-83
2023/01/20 03:08:30;;;;;;;;;;;;;;;19.74;38.83;99957.13;106137;1282;61227;-83
2023/01/20 03:10:56;;;;;;;;;;;;;;;19.74;38.73;99960.88;106205;1282;61238;-82
2023/01/20 03:13:45;;;;;;;;;;;;;;;19.74;38.62;99957.46;106109;1286;61369;-83
2023/01/20 03:16:11;;;;;;;;;;;;;;;19.74;38.69;99953.38;106166;1282;73604;-83
2023/01/20 03:18:36;;;;;;;;;;;;;;;19.74;38.80;99954.46;106062;1283;61337;-83
2023/01/20 03:21:03;;;;;;;;;;;;;;;19.73;38.70;99954.13;105967;1283;60108;-82
2023/01/20 03:23:29;;;;;;;;;;;;;;;19.73;38.75;99951.11;106013;1283;61278;-83
2023/01/20 03:25:55;;;;;;;;;;;;;;;19.73;38.76;99952.88;106084;1282;61278;-83
2023/01/20 03:28:20;;;;;;;;;;;;;;;19.73;38.63;99941.15;106158;1282;61256;-83
2023/01/20 03:30:46;;;;;;;;;;;;;;;19.73;38.84;99938.64;106096;1282;61383;-83
2023/01/20 03:33:11;;;;;;;;;;;;;;;19.72;38.77;99942.98;106216;1286;61395;-83
2023/01/20 03:35:37;;;;;;;;;;;;;;;19.72;38.84;99945.83;106006;1282;61151;-83
2023/01/20 03:38:03;;;;;;;;;;;;;;;19.72;38.76;99944.38;106074;1287;61850;-83
2023/01/20 03:40:29;;;;;;;;;;;;;;;19.72;38.76;99940.46;106173;1282;61340;-82
2023/01/20 03:43:00;;;;;;;;;;;;;;;19.72;38.71;99949.80;106211;1282;61349;-83
2023/01/20 03:45:26;;;;;;;;;;;;;;;19.72;38.72;99943.17;106085;1284;61207;-83
2023/01/20 03:48:07;;;;;;;;;;;;;;;19.72;38.81;99942.48;106090;1282;61369;-83
2023/01/20 03:50:35;;;;;;;;;;;;;;;19.72;38.76;99938.20;106170;1282;74416;-83
2023/01/20 03:53:36;;;;;;;;;;;;;;;19.72;38.82;99936.93;106101;1282;61260;-83
2023/01/20 03:56:06;;;;;;;;;;;;;;;19.72;38.67;99927.33;105887;1286;61113;-83
2023/01/20 03:58:34;;;;;;;;;;;;;;;19.72;38.59;99929.64;105826;1286;72520;-83
2023/01/20 04:01:00;;;;;;;;;;;;;;;19.71;38.74;99933.38;105556;1289;75476;-83
2023/01/20 04:03:26;;;;;;;;;;;;;;;19.72;38.74;99934.63;105561;1286;61310;-82
2023/01/20 04:05:51;;;;;;;;;;;;;;;19.72;38.82;99936.10;105535;1286;61983;-82
2023/01/20 04:08:17;;;;;;;;;;;;;;;19.72;38.67;99929.67;105691;1286;61260;-82
2023/01/20 04:10:44;;;;;;;;;;;;;;;19.72;38.76;99922.88;105600;1289;61353;-82
2023/01/20 04:13:09;;;;;;;;;;;;;;;19.71;38.84;99917.88;105620;1286;61145;-82
2023/01/20 04:15:36;;;;;;;;;;;;;;;19.71;38.72;99910.73;105643;1289;61385;-83
2023/01/20 04:18:12;;;;;;;;;;;;;;;19.71;38.83;99901.10;105577;1286;59296;-83
2023/01/20 04:20:37;;;;;;;;;;;;;;;19.71;38.67;99899.13;105802;1286;75263;-82
2023/01/20 04:23:03;;;;;;;;;;;;;;;19.71;38.80;99915.95;105605;1287;61739;-82
2023/01/20 04:25:29;;;;;;;;;;;;;;;19.71;38.76;99910.95;105669;1286;61300;-82
2023/01/20 04:27:54;;;;;;;;;;;;;;;19.70;38.64;99914.73;105659;1289;61173;-82
2023/01/20 04:30:20;;;;;;;;;;;;;;;19.71;38.84;99912.40;105798;1282;61240;-82
2023/01/20 04:32:46;;;;;;;;;;;;;;;19.71;38.77;99913.80;106073;1282;61286;-82
2023/01/20 04:35:12;;;;;;;;;;;;;;;19.70;38.81;99916.88;105951;1283;61141;-82
2023/01/20 04:37:37;;;;;;;;;;;;;;;19.71;38.77;99918.45;105938;1282;61243;-82
2023/01/20 04:40:03;;;;;;;;;;;;;;;19.71;38.92;99918.45;106158;1282;61368;-82
2023/01/20 04:42:28;;;;;;;;;;;;;;;19.70;38.75;99924.91;105997;1283;61395;-82
2023/01/20 04:44:54;;;;;;;;;;;;;;;19.70;38.84;99930.79;106092;1287;61236;-82
2023/01/20 04:47:19;;;;;;;;;;;;;;;19.70;38.69;99925.30;106072;1282;61325;-82
2023/01/20 04:49:45;;;;;;;;;;;;;;;19.70;38.80;99919.80;106112;1282;61233;-82
2023/01/20 04:52:11;;;;;;;;;;;;;;;19.70;38.80;99923.37;106036;1283;61264;-82
2023/01/20 04:54:37;;;;;;;;;;;;;;;19.70;38.80;99929.98;106165;1282;61809;-82
2023/01/20 04:57:03;;;;;;;;;;;;;;;19.70;38.83;99933.54;106100;1282;61340;-82
2023/01/20 04:59:28;;;;;;;;;;;;;;;19.69;38.82;99924.67;106114;1283;62103;-82
2023/01/20 05:01:54;;;;;;;;;;;;;;;19.69;38.90;99923.60;106084;1288;61316;-82
2023/01/20 05:04:20;;;;;;;;;;;;;;;19.69;38.93;99927.52;106164;1287;59870;-82
2023/01/20 05:06:46;;;;;;;;;;;;;;;19.69;38.87;99933.26;106023;1288;75369;-83
2023/01/20 05:09:12;;;;;;;;;;;;;;;19.69;38.82;99930.21;106151;1283;61436;-83
2023/01/20 05:11:38;;;;;;;;;;;;;;;19.69;38.92;99937.17;106075;1282;61227;-83
2023/01/20 05:14:03;;;;;;;;;;;;;;;19.69;38.80;99938.61;105975;1283;61244;-84
2023/01/20 05:16:32;;;;;;;;;;;;;;;19.68;39.04;99934.08;106132;1282;61334;-84
2023/01/20 05:18:59;;;;;;;;;;;;;;;19.67;38.88;99935.33;106171;1282;61254;-84
2023/01/20 05:21:24;;;;;;;;;;;;;;;19.67;39.07;99939.66;106128;1282;61337;-83
2023/01/20 05:23:53;;;;;;;;;;;;;;;19.66;38.86;99951.29;105973;1288;61282;-83
2023/01/20 05:26:21;;;;;;;;;;;;;;;19.67;38.85;99953.73;106165;1282;73285;-83
2023/01/20 05:28:47;;;;;;;;;;;;;;;19.68;38.89;99938.91;106207;1282;61311;-83
2023/01/20 05:31:12;;;;;;;;;;;;;;;19.67;39.00;99936.04;106122;1282;59424;-83
2023/01/20 05:33:38;;;;;;;;;;;;;;;19.68;39.04;99933.65;106127;1282;61234;-83
2023/01/20 05:36:05;;;;;;;;;;;;;;;19.69;39.03;99931.27;106080;1282;61414;-83
2023/01/20 05:38:31;;;;;;;;;;;;;;;19.71;39.05;99930.94;106143;1282;61091;-83
2023/01/20 05:41:03;;;;;;;;;;;;;;;19.73;38.96;99935.22;106036;1282;59397;-83
2023/01/20 05:43:28;;;;;;;;;;;;;;;19.76;38.92;99939.30;106289;1281;73507;-83
2023/01/20 05:45:54;;;;;;;;;;;;;;;19.79;38.88;99947.10;106265;1283;60625;-83
2023/01/20 05:48:21;;;;;;;;;;;;;;;19.82;39.00;99950.63;106270;1282;61320;-83
2023/01/20 05:50:46;;;;;;;;;;;;;;;19.85;38.87;99951.67;106282;1282;61270;-83
2023/01/20 05:53:12;;;;;;;;;;;;;;;19.87;39.12;99948.98;106288;1282;61391;-84
2023/01/20 05:55:38;;;;;;;;;;;;;;;19.91;38.97;99945.40;106255;1282;59393;-84
2023/01/20 05:58:04;;;;;;;;;;;;;;;19.95;39.00;99948.02;106196;1282;61396;-82
2023/01/20 06:00:29;;;;;;;;;;;;;;;19.98;39.02;99943.68;106165;1282;60122;-83
2023/01/20 06:02:55;;;;;;;;;;;;;;;20.00;39.19;99942.11;106274;1282;60547;-82
2023/01/20 06:05:21;;;;;;;;;;;;;;;20.03;39.20;99947.94;106211;1283;61209;-82
2023/01/20 06:07:48;;;;;;;;;;;;;;;20.05;39.17;99948.48;106188;1282;61087;-83
2023/01/20 06:10:14;;;;;;;;;;;;;;;20.08;39.10;99945.36;106322;1282;60067;-82
2023/01/20 06:12:40;;;;;;;;;;;;;;;20.12;39.32;99945.56;106299;1282;60032;-82
2023/01/20 06:15:06;;;;;;;;;;;;;;;20.16;39.27;99943.67;106222;1282;60045;-82
2023/01/20 06:17:31;;;;;;;;;;;;;;;20.18;39.30;99940.77;106157;1282;59225;-83
2023/01/20 06:19:57;;;;;;;;;;;;;;;20.22;39.31;99941.52;106149;1282;61278;-82
2023/01/20 06:22:23;;;;;;;;;;;;;;;20.25;39.27;99941.44;106127;1282;60904;-82
2023/01/20 06:24:48;;;;;;;;;;;;;;;20.29;39.13;99933.89;106201;1282;59553;-83
2023/01/20 06:27:13;;;;;;;;;;;;;;;20.32;39.27;99931.30;105951;1282;61161;-82
2023/01/20 06:29:39;;;;;;;;;;;;;;;20.34;39.35;99925.23;106156;1282;61233;-81
2023/01/20 06:32:04;;;;;;;;;;;;;;;20.37;39.35;99931.24;105939;1283;59752;-82
2023/01/20 06:34:30;;;;;;;;;;;;;;;20.41;39.23;99942.87;106122;1282;60693;-82
2023/01/20 06:36:55;;;;;;;;;;;;;;;20.45;39.44;99955.77;106146;1282;60625;-82
2023/01/20 06:39:21;;;;;;;;;;;;;;;20.49;39.51;99954.21;105965;1282;61014;-81
2023/01/20 06:41:47;;;;;;;;;;;;;;;20.52;39.45;99949.98;106214;1282;62055;-81
2023/01/20 06:44:12;;;;;;;;;;;;;;;20.57;39.50;99950.36;106129;1282;61224;-81
2023/01/20 06:46:37;;;;;;;;;;;;;;;20.60;39.47;99950.81;106240;1282;61369;-81
2023/01/20 06:49:03;;;;;;;;;;;;;;;20.63;39.56;99959.66;106095;1282;61247;-81
2023/01/20 06:51:29;;;;;;;;;;;;;;;20.66;39.64;99959.23;106051;1282;60139;-82
2023/01/20 06:53:55;;;;;;;;;;;;;;;20.69;39.43;99964.02;106075;1282;61267;-83
2023/01/20 06:56:21;;;;;;;;;;;;;;;20.70;39.62;99963.92;106153;1280;61236;-82
2023/01/20 06:58:47;;;;;;;;;;;;;;;20.70;39.70;99965.01;106285;1282;61293;-83
2023/01/20 07:01:13;;;;;;;;;;;;;;;20.68;39.78;99969.98;106373;1282;61196;-83
2023/01/20 07:03:42;;;;;;;;;;;;;;;20.65;39.71;99974.85;106170;1282;73443;-84
2023/01/20 07:06:19;;;;;;;;;;;;;;;20.64;39.59;99985.91;106208;1282;75040;-84
2023/01/20 07:08:44;;;;;;;;;;;;;;;20.63;39.62;99989.86;106147;1282;60807;-83
2023/01/20 07:11:10;;;;;;;;;;;;;;;20.64;39.57;99986.77;106184;1285;60895;-83
2023/01/20 07:13:35;;;;;;;;;;;;;;;20.65;39.75;99984.73;106192;1282;61341;-83
2023/01/20 07:16:01;;;;;;;;;;;;;;;20.65;39.69;99975.44;106213;1282;61530;-83
2023/01/20 07:18:27;;;;;;;;;;;;;;;20.65;39.54;99961.30;106174;1282;61266;-83
2023/01/20 07:20:53;;;;;;;;;;;;;;;20.64;39.76;99961.77;106053;1282;61151;-83
2023/01/20 07:23:19;;;;;;;;;;;;;;;20.62;39.65;99957.38;106132;1282;61100;-83
2023/01/20 07:25:44;;;;;;;;;;;;;;;20.61;39.58;99959.66;106207;1283;62378;-83
2023/01/20 07:28:10;;;;;;;;;;;;;;;20.60;39.59;99962.41;106191;1282;61320;-83
2023/01/20 07:30:35;;;;;;;;;;;;;;;20.58;39.61;99956.30;106207;1282;59464;-83
2023/01/20 07:33:01;;;;;;;;;;;;;;;20.57;39.60;99969.10;106171;1282;61375;-83
2023/01/20 07:35:26;;;;;;;;;;;;;;;20.56;39.67;99964.52;106137;1282;61538;-83
2023/01/20 07:37:52;;;;;;;;;;;;;;;20.56;39.75;99959.19;106140;1282;59273;-83
2023/01/20 07:40:17;;;;;;;;;;;;;;;20.55;39.75;99951.95;106137;1282;61235;-83
2023/01/20 07:42:43;;;;;;;;;;;;;;;20.53;39.64;99946.14;106185;1282;61405;-83
2023/01/20 07:45:08;;;;;;;;;;;;;;;20.53;39.62;99947.81;106204;1282;61252;-83
2023/01/20 07:47:34;;;;;;;;;;;;;;;20.52;39.70;99956.84;106194;1282;61205;-83
2023/01/20 07:50:00;;;;;;;;;;;;;;;20.50;39.69;99957.30;106125;1282;61715;-83
2023/01/20 07:52:26;;;;;;;;;;;;;;;20.49;39.86;99954.41;106164;1283;61113;-83
2023/01/20 07:54:51;;;;;;;;;;;;;;;20.41;39.52;99947.67;106108;1282;60095;-83
2023/01/20 07:57:17;;;;;;;;;;;;;;;20.25;39.74;99955.82;106374;1282;61230;-83
2023/01/20 07:59:43;;;;;;;;;;;;;;;20.16;39.93;99964.52;106145;1282;61377;-84
2023/01/20 08:02:10;;;;;;;;;;;;;;;20.13;40.06;99971.21;106247;1282;73281;-82
2023/01/20 08:04:35;;;;;;;;;;;;;;;20.13;40.32;99975.13;106171;1282;75291;-82
2023/01/20 08:07:01;;;;;;;;;;;;;;;20.17;40.42;99972.15;106148;1282;61063;-83
2023/01/20 08:09:26;;;;;;;;;;;;;;;20.19;40.53;99965.75;106219;1282;60167;-82
2023/01/20 08:11:51;;;;;;;;;;;;;;;20.22;40.69;99970.35;106176;1284;60518;-83
2023/01/20 08:14:17;;;;;;;;;;;;;;;20.26;40.81;99963.91;106184;1283;61198;-83
2023/01/20 08:16:43;;;;;;;;;;;;;;;20.28;40.76;99962.15;106198;1282;72568;-83
2023/01/20 08:19:09;;;;;;;;;;;;;;;20.30;40.89;99967.36;106177;1282;61248;-83
2023/01/20 08:21:34;;;;;;;;;;;;;;;20.32;40.87;99963.61;106118;1282;61330;-82
2023/01/20 08:24:00;;;;;;;;;;;;;;;20.34;40.76;99966.51;106129;1286;59701;-83
2023/01/20 08:26:27;;;;;;;;;;;;;;;20.36;40.91;99971.66;106071;1282;60030;-83
2023/01/20 08:28:53;;;;;;;;;;;;;;;20.39;40.92;99969.69;106138;1282;60031;-82
2023/01/20 08:31:20;;;;;;;;;;;;;;;20.42;40.93;99967.99;106022;1282;60101;-82
2023/01/20 08:33:45;;;;;;;;;;;;;;;20.45;40.89;99959.87;106055;1282;61362;-83
2023/01/20 08:36:15;;;;;;;;;;;;;;;20.48;40.89;99948.58;106133;1282;61253;-83
2023/01/20 08:38:41;;;;;;;;;;;;;;;20.50;41.01;99946.45;105968;1282;61281;-83
2023/01/20 08:41:10;;;;;;;;;;;;;;;20.51;40.88;99944.35;106040;1282;61184;-81
2023/01/20 08:43:36;;;;;;;;;;;;;;;20.53;40.91;99945.61;106019;1283;73109;-81
2023/01/20 08:46:02;;;;;;;;;;;;;;;20.55;41.04;99952.61;106134;1282;61326;-81
2023/01/20 08:48:27;;;;;;;;;;;;;;;20.57;41.00;99951.70;106222;1282;61293;-81
2023/01/20 08:50:53;;;;;;;;;;;;;;;20.59;41.05;99954.45;106144;1282;61229;-83
2023/01/20 08:53:19;;;;;;;;;;;;;;;20.60;40.94;99958.10;105971;1285;60571;-83
2023/01/20 08:55:52;;;;;;;;;;;;;;;20.61;41.03;99957.33;106207;1282;59760;-83
2023/01/20 08:58:18;;;;;;;;;;;;;;;20.63;41.07;99959.87;106111;1284;75212;-82
2023/01/20 09:00:43;;;;;;;;;;;;;;;20.65;41.04;99959.19;106136;1282;61244;-83
2023/01/20 09:03:09;;;;;;;;;;;;;;;20.64;41.15;99959.25;106046;1282;61231;-84
2023/01/20 09:05:35;;;;;;;;;;;;;;;20.54;40.98;99951.29;106189;1282;61694;-83
2023/01/20 09:08:01;;;;;;;;;;;;;;;20.43;40.99;99948.83;106204;1282;61368;-83
2023/01/20 09:10:26;;;;;;;;;;;;;;;20.31;41.07;99942.80;106164;1282;61362;-83
2023/01/20 09:12:52;;;;;;;;;;;;;;;20.19;41.21;99943.43;106097;1282;60931;-84
2023/01/20 09:15:19;;;;;;;;;;;;;;;20.15;41.24;99942.48;106232;1282;59855;-83
2023/01/20 09:17:44;;;;;;;;;;;;;;;20.18;41.26;99926.36;105950;1282;59950;-81
2023/01/20 09:20:10;;;;;;;;;;;;;;;20.22;41.31;99932.61;106121;1282;59415;-83
2023/01/20 09:22:36;;;;;;;;;;;;;;;20.27;41.35;99931.73;106210;1282;61385;-82
2023/01/20 09:25:02;;;;;;;;;;;;;;;20.30;41.37;99929.70;106151;1284;61330;-82
2023/01/20 09:27:27;;;;;;;;;;;;;;;20.33;41.30;99910.46;106138;1282;59405;-82
2023/01/20 09:29:53;;;;;;;;;;;;;;;20.37;41.36;99900.31;106160;1282;61273;-83
2023/01/20 09:32:18;;;;;;;;;;;;;;;20.41;41.32;99898.70;106076;1283;61242;-82
2023/01/20 09:34:44;;;;;;;;;;;;;;;20.44;41.14;99896.15;106043;1282;59728;-83
2023/01/20 09:45:37;;;;;;;;;;;;;;;20.53;41.23;99881.47;106048;1282;60812;-83
2023/01/20 09:53:46;;;;;;;;;;;;;;;20.56;41.25;99880.17;105551;1287;73466;-83
2023/01/20 09:56:18;;;;;;;;;;;;;;;20.55;41.37;99872.39;106594;1282;59268;-83
2023/01/20 09:59:06;;;;;;;;;;;;;;;20.57;41.27;99874.17;106557;1282;59434;-83
2023/01/20 10:01:34;;;;;;;;;;;;;;;20.57;41.35;99868.42;105833;1289;72829;-83
2023/01/20 10:04:12;;;;;;;;;;;;;;;20.54;41.43;99865.88;106035;1286;75490;-82
2023/01/20 10:06:45;;;;;;;;;;;;;;;20.47;41.52;99855.34;105907;1286;60202;-83
2023/01/20 10:09:16;;;;;;;;;;;;;;;20.39;41.57;99852.27;105633;1286;61229;-83
2023/01/20 10:11:42;;;;;;;;;;;;;;;20.30;41.69;99849.29;105992;1285;73423;-83
2023/01/20 10:14:14;;;;;;;;;;;;;;;20.24;41.55;99844.54;105652;1286;61238;-84
2023/01/20 10:16:39;;;;;;;;;;;;;;;20.22;41.72;99844.52;105885;1286;61039;-83
2023/01/20 10:19:09;;;;;;;;;;;;;;;20.25;41.76;99841.21;105855;1286;61285;-83
2023/01/20 10:21:36;;;;;;;;;;;;;;;20.23;41.65;99837.34;105751;1285;73967;-83
2023/01/20 10:24:23;;;;;;;;;;;;;;;20.21;41.74;99830.54;105701;1286;73374;-84
2023/01/20 10:26:55;;;;;;;;;;;;;;;20.24;41.84;99816.35;105897;1286;60133;-83
2023/01/20 10:29:28;;;;;;;;;;;;;;;20.25;41.95;99807.82;105881;1286;60150;-83
2023/01/20 10:31:57;;;;;;;;;;;;;;;20.25;41.90;99803.94;105810;1285;73896;-83
2023/01/20 10:34:23;;;;;;;;;;;;;;;20.25;41.91;99806.38;105833;1286;74346;-83
2023/01/20 10:36:59;;;;;;;;;;;;;;;20.26;41.86;99803.84;105843;1286;59403;-83
2023/01/20 10:39:43;;;;;;;;;;;;;;;20.29;41.93;99801.99;105992;1282;61136;-84
2023/01/20 10:42:10;;;;;;;;;;;;;;;20.30;41.84;99797.05;106134;1284;72421;-83
2023/01/20 10:44:36;;;;;;;;;;;;;;;20.29;41.75;99801.41;106151;1282;74184;-83
2023/01/20 10:47:10;;;;;;;;;;;;;;;20.28;41.82;99792.21;106097;1282;60686;-84
2023/01/20 10:49:36;;;;;;;;;;;;;;;20.30;41.79;99792.24;106220;1281;60467;-83
2023/01/20 10:52:07;;;;;;;;;;;;;;;20.30;41.68;99787.77;106149;1282;61207;-82
2023/01/20 10:54:45;;;;;;;;;;;;;;;20.30;41.65;99779.41;105967;1282;75653;-82
2023/01/20 10:57:12;;;;;;;;;;;;;;;20.30;41.73;99768.89;106253;1282;59925;-83
2023/01/20 10:59:45;;;;;;;;;;;;;;;20.31;41.71;99766.24;106098;1282;60259;-82
2023/01/20 11:02:23;;;;;;;;;;;;;;;20.27;41.64;99764.45;106760;1282;72374;-82
2023/01/20 11:04:53;;;;;;;;;;;;;;;20.24;41.64;99772.55;106542;1282;74161;-82
2023/01/20 11:07:18;;;;;;;;;;;;;;;20.24;41.90;99774.34;106029;1282;60020;-83
2023/01/20 11:09:45;;;;;;;;;;;;;;;20.26;41.94;99773.80;106245;1282;59158;-83
2023/01/20 11:12:15;;;;;;;;;;;;;;;20.29;42.02;99762.16;106205;1282;59682;-83
2023/01/20 11:14:41;;;;;;;;;;;;;;;20.30;41.99;99753.31;105995;1282;75450;-82
2023/01/20 11:17:07;;;;;;;;;;;;;;;20.31;42.02;99743.41;106166;1282;61222;-83
2023/01/20 11:19:48;;;;;;;;;;;;;;;20.30;41.82;99736.18;106137;1282;59845;-83
2023/01/20 11:22:19;;;;;;;;;;;;;;;20.28;41.81;99731.36;106085;1287;72528;-83
2023/01/20 11:24:45;;;;;;;;;;;;;;;20.28;41.88;99734.92;106222;1282;74889;-82
2023/01/20 11:27:12;;;;;;;;;;;;;;;20.27;41.88;99727.63;106141;1282;61945;-82
2023/01/20 11:29:39;;;;;;;;;;;;;;;20.26;41.71;99725.59;106260;1282;60087;-82
2023/01/20 11:32:06;;;;;;;;;;;;;;;20.27;41.61;99718.51;106212;1282;73650;-82
2023/01/20 11:34:33;;;;;;;;;;;;;;;20.28;41.70;99716.30;106107;1282;75764;-82
2023/01/20 11:37:05;;;;;;;;;;;;;;;20.30;41.71;99712.60;106245;1282;61167;-83
2023/01/20 11:39:32;;;;;;;;;;;;;;;20.32;41.53;99708.61;106226;1282;60726;-83
2023/01/20 11:42:18;;;;;;;;;;;;;;;20.35;41.57;99706.95;106082;1282;73450;-83
2023/01/20 11:44:48;;;;;;;;;;;;;;;20.38;41.65;99698.65;106726;1282;75524;-82
2023/01/20 11:47:35;;;;;;;;;;;;;;;20.40;41.64;99694.55;106793;1282;59638;-82
2023/01/20 11:50:03;;;;;;;;;;;;;;;20.42;41.51;99688.27;106854;1282;59359;-83
2023/01/20 11:52:47;;;;;;;;;;;;;;;20.41;41.57;99686.77;106804;1282;73718;-83
2023/01/20 11:55:16;;;;;;;;;;;;;;;20.43;41.70;99686.92;106599;1284;74408;-84
2023/01/20 11:57:47;;;;;;;;;;;;;;;20.47;41.63;99686.28;106628;1282;59933;-84
2023/01/20 12:00:26;;;;;;;;;;;;;;;20.50;41.75;99680.13;106625;1282;59452;-83
2023/01/20 12:02:57;;;;;;;;;;;;;;;20.51;41.72;99670.20;106778;1284;71577;-83
2023/01/20 12:05:53;;;;;;;;;;;;;;;20.52;41.67;99672.02;106755;1282;75296;-83
2023/01/20 12:08:29;;;;;;;;;;;;;;;20.55;41.50;99678.25;106122;1282;60939;-83
2023/01/20 12:10:55;;;;;;;;;;;;;;;20.57;41.57;99681.80;106164;1282;60210;-83
2023/01/20 12:13:24;;;;;;;;;;;;;;;20.59;41.56;99681.96;106065;1282;73530;-84
2023/01/20 12:15:51;;;;;;;;;;;;;;;20.61;41.41;99684.20;106237;1282;74144;-83
2023/01/20 12:18:18;;;;;;;;;;;;;;;20.63;41.41;99679.17;106858;1285;59808;-84
2023/01/20 12:20:45;;;;;;;;;;;;;;;20.64;41.55;99675.66;106366;1282;60014;-83
2023/01/20 12:23:13;;;;;;;;;;;;;;;20.67;41.47;99670.98;106141;1282;73455;-83
2023/01/20 12:25:42;;;;;;;;;;;;;;;20.66;41.25;99670.14;106601;1284;74327;-83
2023/01/20 12:28:22;;;;;;;;;;;;;;;20.64;41.07;99667.08;106878;1282;60908;-83
2023/01/20 12:30:50;;;;;;;;;;;;;;;20.60;41.12;99662.83;106783;1282;59401;-83
2023/01/20 12:33:36;;;;;;;;;;;;;;;20.50;40.86;99661.91;106333;1286;72609;-83
2023/01/20 12:36:22;;;;;;;;;;;;;;;20.36;40.85;99654.34;106084;1282;75516;-83
2023/01/20 12:39:08;;;;;;;;;;;;;;;20.39;41.15;99641.05;106122;1282;61244;-82
2023/01/20 12:41:39;;;;;;;;;;;;;;;20.44;40.92;99632.36;106081;1282;61067;-83
2023/01/20 12:44:17;;;;;;;;;;;;;;;20.49;40.93;99630.89;106126;1282;72533;-83
2023/01/20 12:46:49;;;;;;;;;;;;;;;20.52;40.93;99627.02;106255;1282;74546;-82
2023/01/20 12:49:19;;;;;;;;;;;;;;;20.54;40.87;99630.23;106102;1282;61161;-83
2023/01/20 12:52:11;;;;;;;;;;;;;;;20.57;41.01;99631.23;106133;1282;60609;-82
2023/01/20 12:54:43;;;;;;;;;;;;;;;20.58;40.87;99632.55;106056;1282;73396;-82